Time;durP1;ratioP1;P1;durP2;ratioP2;P2;SDS_P1;SDS_P2;PMS_P1;PMS_P2;Temp;Humidity;BMP_temperature;BMP_pressure;BME280_temperature;BME280_humidity;BME280_pressure;Samples;Min_cycle;Max_cycle;Signal;HPM_P1;HPM_P2
2021/01/18 00:01:37;;;;;;;37.60;11.32;;;;;;;4.77;100.00;101864.66;5084418;28;20032;-70
2021/01/18 00:04:03;;;;;;;44.20;11.27;;;;;;;4.85;100.00;101865.38;5054576;28;20450;-70
2021/01/18 00:06:29;;;;;;;44.78;10.63;;;;;;;4.73;100.00;101857.66;5081779;28;20059;-71
2021/01/18 00:08:54;;;;;;;37.20;11.15;;;;;;;4.70;100.00;101857.72;5086636;28;20047;-71
2021/01/18 00:11:22;;;;;;;42.90;11.73;;;;;;;4.70;100.00;101863.03;5067372;28;20072;-71
2021/01/18 00:13:49;;;;;;;42.85;12.13;;;;;;;4.71;100.00;101854.16;5069571;28;20043;-70
2021/01/18 00:16:17;;;;;;;45.30;11.52;;;;;;;4.73;100.00;101862.97;5084537;28;20551;-71
2021/01/18 00:18:42;;;;;;;38.33;12.02;;;;;;;4.82;100.00;101860.09;5088267;28;20047;-71
2021/01/18 00:21:08;;;;;;;44.38;12.60;;;;;;;4.67;100.00;101857.78;5086752;28;20040;-71
2021/01/18 00:23:38;;;;;;;32.88;11.75;;;;;;;4.80;100.00;101855.75;5078082;28;20115;-71
2021/01/18 00:26:05;;;;;;;37.00;11.65;;;;;;;4.75;100.00;101857.63;5075370;28;20024;-70
2021/01/18 00:28:32;;;;;;;48.58;13.50;;;;;;;4.72;100.00;101858.56;5073834;28;20122;-70
2021/01/18 00:31:04;;;;;;;34.78;12.38;;;;;;;4.69;100.00;101861.28;5097424;28;20038;-69
2021/01/18 00:33:31;;;;;;;38.50;12.88;;;;;;;4.74;100.00;101859.41;5065777;28;20032;-71
2021/01/18 00:35:56;;;;;;;39.47;11.90;;;;;;;4.78;100.00;101854.88;5089172;28;20032;-71
2021/01/18 00:38:22;;;;;;;33.90;11.70;;;;;;;4.82;100.00;101856.56;5089892;28;20497;-71
2021/01/18 00:40:47;;;;;;;36.05;11.82;;;;;;;4.82;100.00;101868.06;5090131;28;20038;-71
2021/01/18 00:43:13;;;;;;;45.80;10.65;;;;;;;4.72;100.00;101850.59;5088751;28;20061;-71
2021/01/18 00:45:38;;;;;;;46.28;12.00;;;;;;;4.74;100.00;101856.75;5088907;28;20385;-70
2021/01/18 00:48:04;;;;;;;34.72;9.75;;;;;;;4.81;100.00;101855.69;5069794;28;20582;-71
2021/01/18 00:50:30;;;;;;;44.53;11.20;;;;;;;4.75;100.00;101850.50;5090979;28;20031;-71
2021/01/18 00:52:59;;;;;;;36.53;11.55;;;;;;;4.67;100.00;101849.81;5079732;28;20054;-71
2021/01/18 00:55:25;;;;;;;37.70;10.40;;;;;;;4.86;100.00;101855.59;5076132;28;20036;-71
2021/01/18 00:58:12;;;;;;;40.13;12.18;;;;;;;4.75;100.00;101842.50;5088778;28;20035;-71
2021/01/18 01:00:41;;;;;;;32.38;11.38;;;;;;;4.72;100.00;101844.38;5078954;28;20436;-70
2021/01/18 01:03:09;;;;;;;34.63;11.10;;;;;;;4.72;100.00;101845.25;5071438;28;20036;-71
2021/01/18 01:05:34;;;;;;;36.22;11.98;;;;;;;4.83;100.00;101839.69;5068982;28;20039;-71
2021/01/18 01:08:00;;;;;;;31.63;11.60;;;;;;;4.79;100.00;101830.91;5072282;28;20068;-71
2021/01/18 01:10:27;;;;;;;37.95;12.18;;;;;;;4.82;100.00;101829.97;5090376;28;20032;-71
2021/01/18 01:12:59;;;;;;;47.08;12.15;;;;;;;4.76;100.00;101824.78;5089105;28;20089;-71
2021/01/18 01:15:24;;;;;;;48.17;13.80;;;;;;;4.66;100.00;101834.75;5090199;28;20456;-71
2021/01/18 01:17:50;;;;;;;37.80;12.50;;;;;;;4.73;100.00;101840.81;5072045;28;20032;-68
2021/01/18 01:20:18;;;;;;;39.85;13.10;;;;;;;4.73;100.00;101835.50;5090024;28;20039;-71
2021/01/18 01:22:44;;;;;;;48.13;14.38;;;;;;;4.61;100.00;101835.78;5073267;28;20103;-71
2021/01/18 01:25:11;;;;;;;47.13;13.73;;;;;;;4.52;100.00;101835.97;5085029;28;20076;-71
2021/01/18 01:27:38;;;;;;;47.38;13.57;;;;;;;4.54;100.00;101835.03;5089258;28;20051;-70
2021/01/18 01:30:05;;;;;;;46.97;14.75;;;;;;;4.62;100.00;101834.88;5089819;28;20032;-71
2021/01/18 01:32:30;;;;;;;56.00;16.73;;;;;;;4.59;100.00;101838.47;5087026;28;20032;-70
2021/01/18 01:34:56;;;;;;;41.72;15.20;;;;;;;4.63;100.00;101842.78;5073522;28;20028;-71
2021/01/18 01:37:21;;;;;;;51.30;15.25;;;;;;;4.54;100.00;101844.78;5087436;28;20042;-71
2021/01/18 01:39:47;;;;;;;54.10;16.45;;;;;;;4.61;100.00;101841.97;5095579;28;20028;-70
2021/01/18 01:42:18;;;;;;;52.67;16.85;;;;;;;4.59;100.00;101837.59;5090019;28;20487;-71
2021/01/18 01:44:44;;;;;;;48.42;15.70;;;;;;;4.57;100.00;101842.94;5089854;28;20055;-70
2021/01/18 01:47:10;;;;;;;53.70;17.35;;;;;;;4.57;100.00;101834.09;5089411;28;20449;-70
2021/01/18 01:49:35;;;;;;;44.70;17.17;;;;;;;4.53;100.00;101838.59;5090438;28;20039;-70
2021/01/18 01:52:03;;;;;;;45.25;17.83;;;;;;;4.58;100.00;101841.16;5087862;28;20047;-71
2021/01/18 01:54:31;;;;;;;63.20;18.23;;;;;;;4.58;100.00;101830.50;5089100;28;20500;-71
2021/01/18 01:56:57;;;;;;;46.55;16.77;;;;;;;4.50;100.00;101833.38;5074699;28;20233;-71
2021/01/18 01:59:22;;;;;;;51.80;19.38;;;;;;;4.61;100.00;101835.78;5088144;28;20490;-71
2021/01/18 02:01:48;;;;;;;49.08;19.35;;;;;;;4.51;100.00;101835.09;5090466;28;20032;-71
2021/01/18 02:04:13;;;;;;;46.95;18.98;;;;;;;4.54;100.00;101834.16;5088626;28;20722;-71
2021/01/18 02:06:39;;;;;;;48.15;18.02;;;;;;;4.56;100.00;101827.91;5089190;28;20436;-71
2021/01/18 02:09:04;;;;;;;53.25;18.60;;;;;;;4.51;100.00;101835.09;5089453;28;20032;-71
2021/01/18 02:11:30;;;;;;;55.67;19.52;;;;;;;4.46;100.00;101827.22;5088047;28;20750;-70
2021/01/18 02:14:28;;;;;;;57.97;20.23;;;;;;;4.42;100.00;101827.31;5088633;28;20036;-71
2021/01/18 02:17:16;;;;;;;55.17;20.70;;;;;;;4.54;100.00;101813.75;5103176;27;20410;-71
2021/01/18 02:20:24;;;;;;;53.92;19.45;;;;;;;4.44;100.00;101817.53;5083088;28;20039;-71
2021/01/18 02:23:08;;;;;;;47.78;19.15;;;;;;;4.51;100.00;101820.91;5087970;28;20075;-71
2021/01/18 02:25:56;;;;;;;48.47;19.38;;;;;;;4.52;100.00;101820.88;5086226;28;20038;-71
2021/01/18 02:28:39;;;;;;;55.80;18.98;;;;;;;4.57;100.00;101821.66;5088339;28;20043;-71
2021/01/18 02:31:16;;;;;;;;;;;;;;;4.52;100.00;101820.88;5089490;28;20110;-69
2021/01/18 02:34:00;;;;;;;51.55;18.20;;;;;;;4.46;100.00;101813.91;5086024;28;19956;-71
2021/01/18 02:36:48;;;;;;;42.97;16.98;;;;;;;4.47;100.00;101820.13;5087370;28;20032;-70
2021/01/18 02:39:32;;;;;;;42.40;16.88;;;;;;;4.47;100.00;101812.13;5108944;27;20114;-71
2021/01/18 02:42:15;;;;;;;47.67;18.30;;;;;;;4.45;100.00;101813.94;5079487;28;20034;-71
2021/01/18 02:44:41;;;;;;;47.07;18.20;;;;;;;4.32;100.00;101820.47;5071093;28;20097;-71
2021/01/18 02:47:08;;;;;;;52.47;16.80;;;;;;;4.31;100.00;101816.94;5094125;28;20297;-71
2021/01/18 02:49:34;;;;;;;48.20;17.80;;;;;;;4.44;100.00;101815.72;5087181;28;20528;-71
2021/01/18 02:52:03;;;;;;;42.15;17.58;;;;;;;4.45;100.00;101824.59;5085202;28;20035;-71
2021/01/18 02:54:29;;;;;;;44.53;15.45;;;;;;;4.41;100.00;101817.59;5107545;27;20032;-71
2021/01/18 02:56:56;;;;;;;43.85;16.55;;;;;;;4.39;100.00;101814.06;5088410;28;20031;-70
2021/01/18 02:59:22;;;;;;;39.95;15.65;;;;;;;4.26;100.00;101812.63;5085137;28;20484;-71
2021/01/18 03:02:24;;;;;;;42.60;15.23;;;;;;;4.39;100.00;101816.75;5086139;28;20067;-70
2021/01/18 03:05:14;;;;;;;41.42;14.43;;;;;;;4.33;100.00;101819.53;5081060;28;20034;-71
2021/01/18 03:08:02;;;;;;;28.67;12.18;;;;;;;4.45;100.00;101824.59;5086456;28;20032;-71
2021/01/18 03:11:03;;;;;;;37.03;13.55;;;;;;;4.39;100.00;101825.59;5081488;28;20131;-70
2021/01/18 03:13:36;;;;;;;40.75;14.27;;;;;;;4.42;100.00;101830.84;5047118;28;20490;-69
2021/01/18 03:16:19;;;;;;;33.30;14.80;;;;;;;4.38;100.00;101833.63;5072967;28;20032;-71
2021/01/18 03:18:46;;;;;;;30.42;12.93;;;;;;;4.29;100.00;101828.47;5085585;28;20106;-70
2021/01/18 03:21:12;;;;;;;37.08;13.52;;;;;;;4.40;100.00;101826.47;5087195;28;20040;-71
2021/01/18 03:23:45;;;;;;;43.28;14.27;;;;;;;4.43;100.00;101821.09;5068447;28;20036;-71
2021/01/18 03:26:11;;;;;;;36.08;14.65;;;;;;;4.45;100.00;101822.81;5068932;28;20055;-71
2021/01/18 03:28:37;;;;;;;35.97;13.65;;;;;;;4.41;100.00;101818.47;5106356;27;20132;-71
2021/01/18 03:31:03;;;;;;;41.70;14.60;;;;;;;4.28;100.00;101810.78;5087870;28;20114;-71
2021/01/18 03:33:28;;;;;;;43.30;16.23;;;;;;;4.36;100.00;101820.34;5068637;28;20024;-70
2021/01/18 03:35:54;;;;;;;47.22;14.93;;;;;;;4.39;100.00;101819.41;5087804;28;20502;-70
2021/01/18 03:38:21;;;;;;;40.30;14.73;;;;;;;4.38;100.00;101812.34;5070724;28;20124;-71
2021/01/18 03:40:47;;;;;;;46.22;16.20;;;;;;;4.48;100.00;101812.13;5072109;28;20081;-71
2021/01/18 03:43:12;;;;;;;35.70;14.52;;;;;;;4.37;100.00;101810.59;5085993;28;20489;-71
2021/01/18 03:45:40;;;;;;;43.05;14.85;;;;;;;4.41;100.00;101812.28;5086531;28;20032;-70
2021/01/18 03:48:07;;;;;;;43.97;16.17;;;;;;;4.50;100.00;101827.16;5085684;28;20032;-71
2021/01/18 03:50:33;;;;;;;55.28;24.25;;;;;;;4.49;100.00;101815.66;5058210;28;20033;-71
2021/01/18 03:52:59;;;;;;;55.50;18.63;;;;;;;4.35;100.00;101820.38;5084308;28;20020;-70
2021/01/18 03:55:25;;;;;;;42.50;16.05;;;;;;;4.33;100.00;101819.53;5091147;28;20130;-71
2021/01/18 03:57:52;;;;;;;146.57;47.35;;;;;;;4.39;100.00;101812.28;5084602;28;20107;-70
2021/01/18 04:00:20;;;;;;;79.35;28.70;;;;;;;4.37;100.00;101826.53;5090071;28;20111;-71
2021/01/18 04:02:45;;;;;;;59.97;27.20;;;;;;;4.35;100.00;101826.56;5089560;28;20107;-71
2021/01/18 04:05:12;;;;;;;38.33;16.77;;;;;;;4.41;100.00;101822.91;5090367;28;20135;-70
2021/01/18 04:07:38;;;;;;;35.92;15.07;;;;;;;4.42;100.00;101825.53;5056246;28;20458;-70
2021/01/18 04:10:04;;;;;;;36.83;18.35;;;;;;;4.34;100.00;101821.28;5076392;28;20119;-71
2021/01/18 04:12:29;;;;;;;38.80;15.57;;;;;;;4.30;100.00;101824.94;5073821;28;20031;-70
2021/01/18 04:14:55;;;;;;;39.92;14.35;;;;;;;4.25;100.00;101818.84;5090233;28;20044;-71
2021/01/18 04:17:20;;;;;;;32.30;14.40;;;;;;;4.19;100.00;101818.97;5103389;28;20038;-71
2021/01/18 04:19:46;;;;;;;39.33;15.00;;;;;;;4.25;100.00;101821.50;5091571;28;20054;-70
2021/01/18 04:22:12;;;;;;;40.85;14.65;;;;;;;4.31;100.00;101813.38;5089578;28;20069;-70
2021/01/18 04:24:37;;;;;;;41.55;15.05;;;;;;;4.21;100.00;101807.38;5069754;28;20029;-71
2021/01/18 04:27:07;;;;;;;41.88;16.17;;;;;;;4.18;100.00;101809.22;5089244;28;20648;-71
2021/01/18 04:29:33;;;;;;;47.28;16.83;;;;;;;4.24;100.00;101825.06;5084360;28;20063;-71
2021/01/18 04:31:58;;;;;;;42.58;18.92;;;;;;;4.23;100.00;101812.66;5070957;28;20056;-71
2021/01/18 04:34:23;;;;;;;48.42;19.23;;;;;;;4.28;100.00;101816.09;5085565;28;20028;-70
2021/01/18 04:36:49;;;;;;;46.88;16.63;;;;;;;4.18;100.00;101809.22;5090861;28;20032;-70
2021/01/18 04:39:15;;;;;;;39.35;14.00;;;;;;;4.33;100.00;101808.91;5074114;28;20042;-71
2021/01/18 04:41:43;;;;;;;46.58;20.30;;;;;;;4.30;100.00;101806.31;5088665;28;20036;-71
2021/01/18 04:44:10;;;;;;;48.97;21.10;;;;;;;4.35;100.00;101807.09;5090725;28;20554;-71
2021/01/18 04:46:41;;;;;;;61.40;25.02;;;;;;;4.38;100.00;101809.69;5073685;28;20028;-69
2021/01/18 04:49:13;;;;;;;55.20;22.65;;;;;;;4.33;100.00;101812.44;5072708;28;20113;-71
2021/01/18 04:51:41;;;;;;;53.25;20.67;;;;;;;4.32;100.00;101801.84;5087991;28;20393;-69
2021/01/18 04:54:12;;;;;;;58.65;23.92;;;;;;;4.23;100.00;101802.03;5091991;28;20055;-70
2021/01/18 04:56:57;;;;;;;54.25;23.77;;;;;;;4.37;100.00;101806.16;5090449;28;20059;-71
2021/01/18 04:59:28;;;;;;;39.17;18.55;;;;;;;4.34;100.00;101811.53;5092317;28;20040;-70
2021/01/18 05:02:08;;;;;;;57.58;25.45;;;;;;;4.43;100.00;101797.19;5075827;28;20393;-70
2021/01/18 05:04:38;;;;;;;55.92;25.35;;;;;;;4.27;100.00;101788.63;5083219;28;20139;-70
2021/01/18 05:07:47;;;;;;;68.20;29.80;;;;;;;4.23;100.00;101791.41;5089295;28;20143;-70
2021/01/18 05:10:21;;;;;;;45.65;20.52;;;;;;;4.24;100.00;101798.47;5032728;28;20147;-71
2021/01/18 05:12:46;;;;;;;115.38;47.30;;;;;;;4.24;100.00;101798.47;5090128;28;20580;-71
2021/01/18 05:15:12;;;;;;;103.22;41.97;;;;;;;4.12;100.00;101794.28;5107542;27;20036;-70
2021/01/18 05:17:46;;;;;;;136.25;54.92;;;;;;;4.10;100.00;101789.91;5070060;28;20067;-70
2021/01/18 05:20:16;;;;;;;91.72;35.63;;;;;;;4.14;100.00;101792.47;5087436;28;20056;-71
2021/01/18 05:22:44;;;;;;;102.53;39.83;;;;;;;4.17;100.00;101791.53;5085345;28;20024;-70
2021/01/18 05:25:13;;;;;;;73.80;30.98;;;;;;;4.07;100.00;101783.72;5071706;28;20040;-71
2021/01/18 05:28:01;;;;;;;62.05;27.70;;;;;;;4.08;100.00;101793.47;5089819;28;20408;-70
2021/01/18 05:30:28;;;;;;;77.78;30.90;;;;;;;4.06;100.00;101795.28;5055641;28;20039;-71
2021/01/18 05:33:14;;;;;;;43.83;19.90;;;;;;;4.22;100.00;101790.53;5090081;28;20039;-70
2021/01/18 05:35:45;;;;;;;58.88;23.75;;;;;;;4.16;100.00;101803.06;5086674;28;20731;-71
2021/01/18 05:38:12;;;;;;;54.78;19.33;;;;;;;4.13;100.00;101795.16;5088726;28;20493;-71
2021/01/18 05:40:50;;;;;;;68.75;25.20;;;;;;;4.16;100.00;101805.72;5089563;28;20131;-71
2021/01/18 05:43:18;;;;;;;58.47;24.40;;;;;;;4.23;100.00;101807.34;5089506;28;20398;-71
2021/01/18 05:45:46;;;;;;;56.97;20.02;;;;;;;4.22;100.00;101805.59;5088903;28;20427;-71
2021/01/18 05:48:13;;;;;;;56.47;22.58;;;;;;;4.17;100.00;101805.69;5089426;28;20179;-70
2021/01/18 05:50:40;;;;;;;54.10;21.45;;;;;;;4.12;100.00;101804.94;5076756;28;20153;-70
2021/01/18 05:53:25;;;;;;;54.33;21.95;;;;;;;4.22;100.00;101808.25;5088215;28;20505;-70
2021/01/18 05:55:51;;;;;;;44.65;19.13;;;;;;;4.33;100.00;101814.22;5086306;28;20064;-71
2021/01/18 05:58:33;;;;;;;59.38;21.85;;;;;;;4.20;100.00;101815.38;5089177;28;20032;-71
2021/01/18 06:01:01;;;;;;;55.43;22.63;;;;;;;4.11;100.00;101800.50;5085446;28;20040;-71
2021/01/18 06:03:28;;;;;;;58.03;19.73;;;;;;;4.19;100.00;101803.91;5100765;28;20290;-71
2021/01/18 06:05:54;;;;;;;54.30;18.67;;;;;;;4.19;100.00;101811.88;5090381;28;20106;-70
2021/01/18 06:08:20;;;;;;;63.67;19.67;;;;;;;4.19;100.00;101811.88;5086793;28;20059;-71
2021/01/18 06:10:47;;;;;;;52.22;19.13;;;;;;;4.26;100.00;101816.13;5088246;28;20063;-70
2021/01/18 06:13:20;;;;;;;58.40;20.02;;;;;;;4.23;100.00;101815.31;5089132;28;20044;-71
2021/01/18 06:15:47;;;;;;;53.20;17.92;;;;;;;4.18;100.00;101810.09;5088596;28;20093;-71
2021/01/18 06:18:14;;;;;;;42.10;18.25;;;;;;;4.13;100.00;101812.00;5088243;28;20063;-71
2021/01/18 06:20:41;;;;;;;61.10;20.02;;;;;;;4.11;100.00;101813.78;5088476;28;20093;-71
2021/01/18 06:23:07;;;;;;;58.63;19.98;;;;;;;4.16;100.00;101824.31;5087964;28;20089;-70
2021/01/18 06:25:34;;;;;;;47.90;19.58;;;;;;;4.17;100.00;101818.09;5070196;28;20482;-70
2021/01/18 06:27:59;;;;;;;50.63;18.77;;;;;;;4.09;100.00;101815.59;5050273;28;20031;-69
2021/01/18 06:30:32;;;;;;;50.40;18.00;;;;;;;4.32;100.00;101818.66;5070932;28;20032;-71
2021/01/18 06:33:11;;;;;;;50.63;17.90;;;;;;;4.30;100.00;101819.59;5089282;28;20485;-71
2021/01/18 06:35:37;;;;;;;53.60;17.55;;;;;;;4.30;100.00;101822.25;5082532;28;20062;-71
2021/01/18 06:38:07;;;;;;;51.78;19.52;;;;;;;4.16;100.00;101822.53;5080474;28;20024;-71
2021/01/18 06:40:35;;;;;;;48.97;18.15;;;;;;;4.23;100.00;101821.50;5075028;28;20111;-71
2021/01/18 06:43:01;;;;;;;49.10;17.77;;;;;;;4.42;100.00;101828.19;5088960;28;20043;-71
2021/01/18 06:45:38;;;;;;;45.22;16.35;;;;;;;4.30;100.00;101815.16;5088738;28;20127;-71
2021/01/18 06:48:06;;;;;;;49.97;18.67;;;;;;;4.18;100.00;101822.50;5083223;28;20039;-71
2021/01/18 06:50:34;;;;;;;52.13;17.30;;;;;;;4.12;100.00;101806.69;5088621;28;20024;-71
2021/01/18 06:53:16;;;;;;;57.13;19.20;;;;;;;4.12;100.00;101812.00;5087415;28;20035;-71
2021/01/18 06:56:08;;;;;;;51.80;17.98;;;;;;;4.15;100.00;101818.13;5086593;28;20038;-71
2021/01/18 06:59:16;;;;;;;58.08;17.23;;;;;;;4.29;100.00;101807.22;5108003;27;20032;-70
2021/01/18 07:01:46;;;;;;;47.35;16.10;;;;;;;4.26;100.00;101815.28;5085584;28;20066;-71
2021/01/18 07:04:17;;;;;;;50.75;15.93;;;;;;;4.16;100.00;101805.72;5086357;28;20091;-71
2021/01/18 07:06:55;;;;;;;49.97;15.48;;;;;;;4.12;100.00;101806.69;5084598;28;20599;-69
2021/01/18 07:09:25;;;;;;;49.65;15.88;;;;;;;4.04;100.00;101812.16;5087201;28;20053;-69
2021/01/18 07:12:02;;;;;;;40.83;16.95;;;;;;;4.02;100.00;101809.53;5082124;28;20487;-70
2021/01/18 07:14:29;;;;;;;41.03;17.63;;;;;;;4.06;100.00;101810.38;5084340;28;20041;-71
2021/01/18 07:17:04;;;;;;;42.53;16.77;;;;;;;3.93;100.00;101806.19;5073910;28;20050;-70
2021/01/18 07:19:36;;;;;;;53.53;16.20;;;;;;;3.91;100.00;101800.91;5094186;28;20120;-71
2021/01/18 07:22:21;;;;;;;53.13;16.85;;;;;;;4.01;100.00;101806.94;5086888;28;20028;-71
2021/01/18 07:24:52;;;;;;;44.60;16.90;;;;;;;3.93;100.00;101808.84;5083920;28;20040;-71
2021/01/18 07:27:23;;;;;;;59.55;19.83;;;;;;;3.83;100.00;101817.88;5085602;28;20111;-70
2021/01/18 07:29:48;;;;;;;67.97;20.73;;;;;;;4.04;100.00;101807.72;5087206;28;20028;-70
2021/01/18 07:32:15;;;;;;;56.65;18.70;;;;;;;3.93;100.00;101803.53;5086016;28;20043;-71
2021/01/18 07:34:40;;;;;;;51.85;18.98;;;;;;;3.94;100.00;101800.84;5085930;28;20066;-70
2021/01/18 07:37:08;;;;;;;43.40;18.90;;;;;;;3.97;100.00;101797.25;5088323;28;20482;-71
2021/01/18 07:39:36;;;;;;;60.88;19.52;;;;;;;3.99;100.00;101804.28;5088086;28;20115;-71
2021/01/18 07:42:02;;;;;;;59.42;18.45;;;;;;;3.99;100.00;101801.63;5087073;28;20077;-71
2021/01/18 07:44:35;;;;;;;57.20;23.38;;;;;;;4.04;100.00;101793.56;5087902;28;20632;-71
2021/01/18 07:47:11;;;;;;;62.10;18.42;;;;;;;3.96;100.00;101804.34;5086681;28;20134;-71
2021/01/18 07:49:45;;;;;;;48.83;18.30;;;;;;;4.04;100.00;101802.41;5068061;28;20047;-71
2021/01/18 07:52:15;;;;;;;53.40;20.00;;;;;;;4.07;100.00;101802.34;5088114;28;20089;-70
2021/01/18 07:54:41;;;;;;;69.20;21.38;;;;;;;3.98;100.00;101802.53;5085846;28;20039;-71
2021/01/18 07:57:23;;;;;;;53.70;19.55;;;;;;;3.98;100.00;101801.66;5073237;28;20025;-71
2021/01/18 07:59:48;;;;;;;49.28;17.80;;;;;;;4.04;100.00;101794.44;5073912;28;20409;-71
2021/01/18 08:02:23;;;;;;;56.97;18.98;;;;;;;4.18;100.00;101803.91;5071053;28;20036;-70
2021/01/18 08:04:49;;;;;;;52.88;17.85;;;;;;;4.21;100.00;101803.84;5086739;28;20115;-71
2021/01/18 08:07:14;;;;;;;68.60;23.02;;;;;;;4.18;100.00;101801.25;5086357;28;20385;-71
2021/01/18 08:09:39;;;;;;;53.53;17.05;;;;;;;4.35;100.00;101807.09;5071131;28;20036;-71
2021/01/18 08:12:34;;;;;;;49.33;18.15;;;;;;;4.36;100.00;101808.84;5101913;28;20510;-70
2021/01/18 08:15:10;;;;;;;53.97;16.52;;;;;;;4.32;100.00;101807.16;5084518;28;20032;-69
2021/01/18 08:17:38;;;;;;;59.38;17.52;;;;;;;4.31;100.00;101816.03;5083124;28;20498;-70
2021/01/18 08:20:13;;;;;;;57.47;17.63;;;;;;;4.37;100.00;101810.59;5084468;28;20059;-70
2021/01/18 08:22:38;;;;;;;69.15;17.80;;;;;;;4.47;100.00;101815.69;5086724;28;20562;-71
2021/01/18 08:25:05;;;;;;;55.90;17.80;;;;;;;4.44;100.00;101810.41;5087197;28;20028;-70
2021/01/18 08:27:35;;;;;;;59.53;18.10;;;;;;;4.40;100.00;101813.19;5068498;28;20028;-70
2021/01/18 08:30:14;;;;;;;64.75;17.52;;;;;;;4.43;100.00;101815.78;5086059;28;20032;-71
2021/01/18 08:32:41;;;;;;;61.25;18.40;;;;;;;4.55;100.00;101818.19;5085901;28;20039;-69
2021/01/18 08:35:08;;;;;;;53.33;17.50;;;;;;;4.50;100.00;101817.41;5074659;28;21100;-70
2021/01/18 08:37:35;;;;;;;52.00;17.15;;;;;;;4.56;100.00;101817.28;5087243;28;20492;-71
2021/01/18 08:40:07;;;;;;;55.60;17.00;;;;;;;4.57;100.00;101824.31;5089552;28;20040;-70
2021/01/18 08:42:37;;;;;;;49.92;15.82;;;;;;;4.55;100.00;101831.47;5066764;28;20036;-70
2021/01/18 08:45:09;;;;;;;60.60;19.30;;;;;;;4.66;100.00;101826.78;5089740;28;20489;-70
2021/01/18 08:47:41;;;;;;;50.90;17.10;;;;;;;4.63;100.00;101831.31;5086625;28;20699;-70
2021/01/18 08:50:23;;;;;;;50.88;16.80;;;;;;;4.75;100.00;101837.19;5089601;28;20147;-70
2021/01/18 08:52:51;;;;;;;48.75;17.30;;;;;;;4.72;100.00;101834.63;5071105;28;20054;-70
2021/01/18 08:55:29;;;;;;;47.03;16.13;;;;;;;4.74;100.00;101832.81;5091853;28;20043;-70
2021/01/18 08:57:58;;;;;;;48.92;16.02;;;;;;;4.83;100.00;101821.94;5090526;28;20503;-70
2021/01/18 09:00:23;;;;;;;46.03;16.38;;;;;;;4.82;100.00;101824.63;5089093;28;20122;-70
2021/01/18 09:02:49;;;;;;;62.22;17.35;;;;;;;4.88;100.00;101825.38;5091141;28;20028;-70
2021/01/18 09:05:20;;;;;;;55.17;15.00;;;;;;;4.87;100.00;101828.97;5091225;28;20043;-70
2021/01/18 09:07:47;;;;;;;61.13;15.50;;;;;;;4.80;100.00;101831.81;5075067;28;20064;-70
2021/01/18 09:10:19;;;;;;;49.80;16.85;;;;;;;4.91;100.00;101823.56;5089234;28;20032;-70
2021/01/18 09:12:46;;;;;;;56.88;15.57;;;;;;;4.89;100.00;101827.13;5089728;28;20031;-70
2021/01/18 09:15:13;;;;;;;43.90;13.27;;;;;;;4.87;100.00;101818.34;5089830;28;20032;-70
2021/01/18 09:17:39;;;;;;;42.83;13.55;;;;;;;4.97;100.00;101828.75;5090693;28;20048;-71
2021/01/18 09:20:07;;;;;;;59.75;15.05;;;;;;;4.92;100.00;101830.63;5088212;28;20073;-70
2021/01/18 09:22:35;;;;;;;45.53;14.07;;;;;;;4.89;100.00;101828.91;5084486;28;20036;-70
2021/01/18 09:25:01;;;;;;;47.38;15.23;;;;;;;4.84;100.00;101825.50;5089820;28;20034;-70
2021/01/18 09:27:28;;;;;;;71.00;16.13;;;;;;;4.84;100.00;101813.06;5089418;28;20397;-71
2021/01/18 09:30:07;;;;;;;47.83;13.18;;;;;;;4.79;100.00;101822.94;5089851;28;20035;-70
2021/01/18 09:32:35;;;;;;;39.40;12.43;;;;;;;4.86;100.00;101827.22;5106255;27;20033;-70
2021/01/18 09:35:11;;;;;;;46.92;13.23;;;;;;;4.86;100.00;101821.03;5084686;28;20035;-70
2021/01/18 09:37:44;;;;;;;36.35;11.98;;;;;;;4.84;100.00;101823.72;5076709;28;20039;-70
2021/01/18 09:40:10;;;;;;;;;;;;;;;4.82;100.00;101827.28;5079586;28;20537;-70
2021/01/18 09:42:37;;;;;;;34.67;11.60;;;;;;;4.96;100.00;101833.19;5083521;28;19995;-70
2021/01/18 09:45:09;;;;;;;45.13;11.15;;;;;;;4.88;100.00;101840.47;5063251;28;20036;-70
2021/01/18 09:47:35;;;;;;;;;;;;;;;4.91;100.00;101839.53;5090906;28;20036;-70
2021/01/18 09:50:08;;;;;;;40.88;11.48;;;;;;;4.93;100.00;101837.72;5083063;28;19927;-70
2021/01/18 09:52:39;;;;;;;51.58;11.57;;;;;;;4.85;100.00;101836.09;5089039;28;20042;-70
2021/01/18 09:55:09;;;;;;;44.85;12.02;;;;;;;4.79;100.00;101830.03;5062759;28;20489;-71
2021/01/18 09:57:38;;;;;;;42.13;10.98;;;;;;;4.87;100.00;101834.28;5088336;28;20032;-71
2021/01/18 10:00:04;;;;;;;45.97;10.68;;;;;;;4.88;100.00;101829.81;5083922;28;20537;-70
2021/01/18 10:02:49;;;;;;;35.47;9.93;;;;;;;4.94;100.00;101828.84;5087995;28;20043;-71
2021/01/18 10:05:36;;;;;;;35.03;9.45;;;;;;;4.99;100.00;101826.94;5080053;28;20047;-71
2021/01/18 10:08:09;;;;;;;33.08;9.88;;;;;;;4.95;100.00;101828.75;5087469;28;20405;-70
2021/01/18 10:10:46;;;;;;;30.25;9.38;;;;;;;4.89;100.00;101823.59;5089438;28;20046;-71
2021/01/18 10:13:19;;;;;;;32.40;9.88;;;;;;;4.97;100.00;101821.63;5087203;28;20558;-71
2021/01/18 10:15:45;;;;;;;43.83;9.25;;;;;;;4.97;100.00;101823.41;5088652;28;20042;-70
2021/01/18 10:18:39;;;;;;;31.38;8.35;;;;;;;5.06;100.00;101810.75;5087685;28;20082;-71
2021/01/18 10:21:06;;;;;;;42.97;9.93;;;;;;;5.04;100.00;101812.59;5087548;28;20038;-70
2021/01/18 10:23:36;;;;;;;34.85;8.73;;;;;;;5.08;100.00;101816.03;5091247;28;20063;-70
2021/01/18 10:26:24;;;;;;;26.73;7.43;;;;;;;5.21;100.00;101806.84;5089673;28;20490;-70
2021/01/18 10:28:59;;;;;;;31.70;8.43;;;;;;;5.15;100.00;101796.38;5089587;28;20047;-69
2021/01/18 10:31:26;;;;;;;26.13;7.75;;;;;;;5.19;100.00;101808.66;5075258;28;20524;-71
2021/01/18 10:34:15;;;;;;;30.90;7.55;;;;;;;5.20;100.00;101803.31;5091577;28;20107;-71
2021/01/18 10:36:42;;;;;;;33.35;8.13;;;;;;;5.11;100.00;101805.34;5090596;28;20505;-70
2021/01/18 10:39:08;;;;;;;26.90;7.32;;;;;;;5.18;100.00;101788.31;5089383;28;20390;-70
2021/01/18 10:41:34;;;;;;;25.65;8.57;;;;;;;5.20;100.00;101791.78;5087229;28;20044;-70
2021/01/18 10:44:06;;;;;;;25.42;8.20;;;;;;;5.26;100.00;101788.97;5075537;28;20078;-71
2021/01/18 10:46:32;;;;;;;25.05;8.63;;;;;;;5.37;100.00;101778.91;5086840;28;20027;-70
2021/01/18 10:48:59;;;;;;;59.67;13.77;;;;;;;5.44;100.00;101772.53;5088531;28;20131;-70
2021/01/18 10:51:28;;;;;;;149.65;37.53;;;;;;;5.57;100.00;101779.28;5088136;28;20028;-70
2021/01/18 10:53:58;;;;;;;42.05;12.65;;;;;;;5.66;100.00;101778.16;5087609;28;20032;-70
2021/01/18 10:56:31;;;;;;;37.30;11.00;;;;;;;5.60;100.00;101779.22;5077653;28;20032;-70
2021/01/18 10:58:57;;;;;;;96.53;32.28;;;;;;;5.61;100.00;101778.31;5088768;28;20024;-71
2021/01/18 11:01:23;;;;;;;93.38;28.63;;;;;;;5.63;100.00;101763.13;5083566;28;20819;-70
2021/01/18 11:03:48;;;;;;;73.20;26.17;;;;;;;5.63;100.00;101757.81;5109679;27;20028;-71
2021/01/18 11:06:16;;;;;;;40.35;14.10;;;;;;;5.83;100.00;101759.03;5069764;28;20028;-70
2021/01/18 11:08:42;;;;;;;26.85;7.82;;;;;;;5.86;100.00;101745.66;5067200;28;20042;-71
2021/01/18 11:11:20;;;;;;;27.20;7.68;;;;;;;5.79;100.00;101736.97;5090172;28;20032;-71
2021/01/18 11:13:45;;;;;;;26.85;8.05;;;;;;;5.84;100.00;101737.69;5080793;28;20032;-71
2021/01/18 11:16:13;;;;;;;19.00;5.88;;;;;;;5.73;100.00;101718.47;5106800;27;20394;-70
2021/01/18 11:18:38;;;;;;;26.05;6.10;;;;;;;5.78;100.00;101721.88;5089254;28;20027;-71
2021/01/18 11:21:04;;;;;;;26.88;5.93;;;;;;;5.80;100.00;101727.19;5087585;28;20028;-71
2021/01/18 11:23:30;;;;;;;27.10;7.05;;;;;;;5.75;100.00;101724.63;5077271;28;20028;-70
2021/01/18 11:25:55;;;;;;;26.25;7.35;;;;;;;5.76;100.00;101730.81;5088808;28;20070;-71
2021/01/18 11:28:21;;;;;;;32.28;7.50;;;;;;;5.86;100.00;101733.22;5087303;28;20035;-70